バロー の空港の天気 - METARとTAF

Barrow, Wiley Post-Will Rogers Memorial Airport ( PABR / BRW ) - アメリカ アラスカ州バロー
飛行場実況気象(Metar)
観測時間02/17 04:53 AKST (02/17 13:53 UTC)
風向・風速南南西 9m/s
視程10km以上
天気現象
全天の4割程度の雲 雲底高度 1520m
気温-10.6℃
湿度84%
気圧1012.2hPa
METARPABR 171353Z 20018KT 9SM SCT050 M11/M13 A2989 RMK SLP122 T11061128 VIA AUTODIAL
過去の天気等 Google飛行場航空写真 Wunderground天気予報

過去48時間のMETAR

飛行場予報(TAF)
発表時間: 2/17 02:41 AKST (2/17 11:41 UTC)
予報対象時間: 17日3時 AKST ~ 18日3時 AKST
風向・風速南 8m/s
視程10km以上
全天の8割程度の雲 雲底高度 2130m
17日12時 AKST から
風向・風速東南東 5m/s
視程10km以上
全天の8割程度の雲 雲底高度 3660m
PABR 171141Z 1712/1812 19015KT P6SM BKN070
FM172100 12010KT P6SM BKN120